Big Bear Station Historical Data
 
Daily Summary for August 20, 2018 Units:  English    Metric   Both
Next Day »
Daily Weekly Monthly Yearly Custom
  Current: High: Low: Average:
Temperature: 59.5 °F 61.3 °F 56.3 °F 58 °F
Dew Point: 55.3 °F 55.3 °F 52.2 °F 52.8 °F
Humidity: 86% 87% 72% 83%
Wind Speed: 0mph 1.7mph 0mph 0.1mph
Wind Gust: -999mph -999mph - -
WindCalm - - South
Pressure: 23.61 in 23.61 in 23.59 in -
Precipitation: 0 in      
Historical Graphs
 
 
Tabular Data for August 20, 2018
Time Temperature Dew Point Pressure Wind Wind Speed Wind Gust Humidity Rainfall Rate (Hourly)
00:07 61.3 °F 52.2 °F 23.61 in Calm   -999 mph 72% 0.00 in
00:22 61 °F 52.3 °F 23.61 in Calm   -999 mph 73% 0.00 in
00:37 60.6 °F 52.6 °F 23.61 in South 1.7 mph -999 mph 75% 0.00 in
00:52 60.4 °F 53.2 °F 23.61 in Calm   -999 mph 77% 0.00 in
01:08 60.1 °F 52.2 °F 23.61 in Calm   -999 mph 75% 0.00 in
01:23 59.5 °F 53 °F 23.61 in Calm   -999 mph 79% 0.00 in
01:38 59 °F 52.8 °F 23.60 in Calm   -999 mph 80% 0.00 in
01:53 58.8 °F 52.6 °F 23.60 in Calm   -999 mph 80% 0.00 in
02:08 58.5 °F 52.7 °F 23.60 in Calm   -999 mph 81% 0.00 in
02:24 58.3 °F 52.5 °F 23.60 in Calm   -999 mph 81% 0.00 in
02:39 57.9 °F 52.4 °F 23.60 in Calm   -999 mph 82% 0.00 in
02:55 58.1 °F 52.6 °F 23.60 in Calm   -999 mph 82% 0.00 in
03:10 57.7 °F 52.6 °F 23.60 in Calm   -999 mph 83% 0.00 in
03:25 57.7 °F 52.9 °F 23.60 in Calm   -999 mph 84% 0.00 in
03:41 57.6 °F 52.8 °F 23.60 in Calm   -999 mph 84% 0.00 in
03:56 57.4 °F 52.9 °F 23.60 in Calm   -999 mph 85% 0.00 in
04:11 57.4 °F 53.2 °F 23.60 in Calm   -999 mph 86% 0.00 in
04:26 57.2 °F 53.1 °F 23.60 in Calm   -999 mph 86% 0.00 in
04:42 57 °F 52.9 °F 23.60 in Calm   -999 mph 86% 0.00 in
04:57 57 °F 52.9 °F 23.60 in Calm   -999 mph 86% 0.00 in
05:12 56.8 °F 52.7 °F 23.59 in Calm   -999 mph 86% 0.00 in
05:27 56.7 °F 52.2 °F 23.60 in Calm   -999 mph 85% 0.00 in
05:43 56.8 °F 52.7 °F 23.59 in Calm   -999 mph 86% 0.00 in
05:58 56.7 °F 52.2 °F 23.60 in Calm   -999 mph 85% 0.00 in
06:13 56.7 °F 52.9 °F 23.60 in Calm   -999 mph 87% 0.00 in
06:29 56.3 °F 52.5 °F 23.60 in Calm   -999 mph 87% 0.00 in
06:44 56.3 °F 52.5 °F 23.60 in Calm   -999 mph 87% 0.00 in
06:59 56.7 °F 52.6 °F 23.60 in Calm   -999 mph 86% 0.00 in
07:15 56.5 °F 52.4 °F 23.61 in Calm   -999 mph 86% 0.00 in
07:30 57.2 °F 53.1 °F 23.61 in Calm   -999 mph 86% 0.00 in
07:45 57.6 °F 53.8 °F 23.61 in Calm   -999 mph 87% 0.00 in
08:01 58.3 °F 54.4 °F 23.61 in Calm   -999 mph 87% 0.00 in
08:16 59.5 °F 55.3 °F 23.61 in Calm   -999 mph 86% 0.00 in
Big Bear CA Weather